sensor_id;sensor_type;location;lat;lon;timestamp;temperature;humidity
75451;DHT22;64029;48.244;9.188;2022-12-18T00:01:24;-7.40;77.40
75451;DHT22;64029;48.244;9.188;2022-12-18T00:03:52;-7.40;77.50
75451;DHT22;64029;48.244;9.188;2022-12-18T00:06:20;-7.40;77.40
75451;DHT22;64029;48.244;9.188;2022-12-18T00:08:47;-7.40;77.40
75451;DHT22;64029;48.244;9.188;2022-12-18T00:11:16;-7.40;77.50
75451;DHT22;64029;48.244;9.188;2022-12-18T00:13:44;-7.40;77.50
75451;DHT22;64029;48.244;9.188;2022-12-18T00:16:13;-7.40;77.40
75451;DHT22;64029;48.244;9.188;2022-12-18T00:18:42;-7.40;77.50
75451;DHT22;64029;48.244;9.188;2022-12-18T00:21:10;-7.30;77.80
75451;DHT22;64029;48.244;9.188;2022-12-18T00:23:38;-7.30;77.90
75451;DHT22;64029;48.244;9.188;2022-12-18T00:26:07;-7.30;78.00
75451;DHT22;64029;48.244;9.188;2022-12-18T00:28:35;-7.20;78.10
75451;DHT22;64029;48.244;9.188;2022-12-18T00:31:05;-7.20;78.00
75451;DHT22;64029;48.244;9.188;2022-12-18T00:33:32;-7.20;78.10
75451;DHT22;64029;48.244;9.188;2022-12-18T00:36:00;-7.20;78.00
75451;DHT22;64029;48.244;9.188;2022-12-18T00:38:27;-7.20;78.10
75451;DHT22;64029;48.244;9.188;2022-12-18T00:40:54;-7.10;78.20
75451;DHT22;64029;48.244;9.188;2022-12-18T00:43:21;-7.10;78.30
75451;DHT22;64029;48.244;9.188;2022-12-18T00:45:47;-7.10;78.30
75451;DHT22;64029;48.244;9.188;2022-12-18T00:48:15;-7.10;78.30
75451;DHT22;64029;48.244;9.188;2022-12-18T00:50:42;-7.10;78.20
75451;DHT22;64029;48.244;9.188;2022-12-18T00:53:09;-7.10;78.40
75451;DHT22;64029;48.244;9.188;2022-12-18T00:55:37;-7.00;78.50
75451;DHT22;64029;48.244;9.188;2022-12-18T00:58:05;-7.00;78.50
75451;DHT22;64029;48.244;9.188;2022-12-18T01:00:32;-7.00;78.40
75451;DHT22;64029;48.244;9.188;2022-12-18T01:02:59;-7.00;78.50
75451;DHT22;64029;48.244;9.188;2022-12-18T01:05:27;-7.00;78.50
75451;DHT22;64029;48.244;9.188;2022-12-18T01:07:55;-7.00;78.70
75451;DHT22;64029;48.244;9.188;2022-12-18T01:10:22;-7.00;78.50
75451;DHT22;64029;48.244;9.188;2022-12-18T01:12:50;-6.90;78.70
75451;DHT22;64029;48.244;9.188;2022-12-18T01:15:17;-6.90;78.70
75451;DHT22;64029;48.244;9.188;2022-12-18T01:17:44;-6.90;78.60
75451;DHT22;64029;48.244;9.188;2022-12-18T01:20:12;-6.90;78.60
75451;DHT22;64029;48.244;9.188;2022-12-18T01:22:40;-6.80;78.90
75451;DHT22;64029;48.244;9.188;2022-12-18T01:25:08;-6.80;78.90
75451;DHT22;64029;48.244;9.188;2022-12-18T01:27:35;-6.80;78.70
75451;DHT22;64029;48.244;9.188;2022-12-18T01:30:02;-6.80;78.90
75451;DHT22;64029;48.244;9.188;2022-12-18T01:32:30;-6.80;78.90
75451;DHT22;64029;48.244;9.188;2022-12-18T01:34:57;-6.80;78.90
75451;DHT22;64029;48.244;9.188;2022-12-18T01:37:25;-6.70;78.90
75451;DHT22;64029;48.244;9.188;2022-12-18T01:39:54;-6.70;78.80
75451;DHT22;64029;48.244;9.188;2022-12-18T01:42:21;-6.70;78.90
75451;DHT22;64029;48.244;9.188;2022-12-18T01:45:04;-6.70;78.80
75451;DHT22;64029;48.244;9.188;2022-12-18T01:47:34;-6.70;78.90
75451;DHT22;64029;48.244;9.188;2022-12-18T01:50:06;-6.70;79.00
75451;DHT22;64029;48.244;9.188;2022-12-18T01:52:34;-6.70;79.10
75451;DHT22;64029;48.244;9.188;2022-12-18T01:55:06;-6.60;79.10
75451;DHT22;64029;48.244;9.188;2022-12-18T01:57:34;-6.60;79.10
75451;DHT22;64029;48.244;9.188;2022-12-18T02:00:28;-6.60;79.10
75451;DHT22;64029;48.244;9.188;2022-12-18T02:03:30;-6.60;79.20
75451;DHT22;64029;48.244;9.188;2022-12-18T02:06:19;-6.60;79.30
75451;DHT22;64029;48.244;9.188;2022-12-18T02:09:26;-6.50;79.40
75451;DHT22;64029;48.244;9.188;2022-12-18T02:12:48;-6.50;79.40
75451;DHT22;64029;48.244;9.188;2022-12-18T02:19:05;-6.50;79.30
75451;DHT22;64029;48.244;9.188;2022-12-18T02:55:55;-6.30;79.90
75451;DHT22;64029;48.244;9.188;2022-12-18T03:02:02;-6.20;79.90
75451;DHT22;64029;48.244;9.188;2022-12-18T03:04:34;-6.20;80.00
75451;DHT22;64029;48.244;9.188;2022-12-18T03:07:07;-6.20;80.00
75451;DHT22;64029;48.244;9.188;2022-12-18T03:09:39;-6.20;79.90
75451;DHT22;64029;48.244;9.188;2022-12-18T03:12:12;-6.20;80.20
75451;DHT22;64029;48.244;9.188;2022-12-18T03:14:54;-6.10;80.10
75451;DHT22;64029;48.244;9.188;2022-12-18T03:17:23;-6.10;80.10
75451;DHT22;64029;48.244;9.188;2022-12-18T03:19:52;-6.10;80.20
75451;DHT22;64029;48.244;9.188;2022-12-18T03:22:22;-6.10;80.30
75451;DHT22;64029;48.244;9.188;2022-12-18T03:24:51;-6.10;80.20
75451;DHT22;64029;48.244;9.188;2022-12-18T03:27:20;-6.00;80.40
75451;DHT22;64029;48.244;9.188;2022-12-18T03:29:52;-6.00;80.30
75451;DHT22;64029;48.244;9.188;2022-12-18T03:32:27;-6.00;80.30
75451;DHT22;64029;48.244;9.188;2022-12-18T03:34:58;-6.00;80.40
75451;DHT22;64029;48.244;9.188;2022-12-18T03:37:26;-6.00;80.50
75451;DHT22;64029;48.244;9.188;2022-12-18T03:39:53;-6.00;80.60
75451;DHT22;64029;48.244;9.188;2022-12-18T03:42:27;-6.00;80.40
75451;DHT22;64029;48.244;9.188;2022-12-18T03:45:02;-6.00;80.40
75451;DHT22;64029;48.244;9.188;2022-12-18T03:47:38;-5.90;80.60
75451;DHT22;64029;48.244;9.188;2022-12-18T03:50:12;-5.90;80.60
75451;DHT22;64029;48.244;9.188;2022-12-18T03:52:45;-5.90;80.80
75451;DHT22;64029;48.244;9.188;2022-12-18T03:55:15;-5.90;80.60
75451;DHT22;64029;48.244;9.188;2022-12-18T03:57:44;-5.90;80.70
75451;DHT22;64029;48.244;9.188;2022-12-18T04:00:14;-5.90;80.60
75451;DHT22;64029;48.244;9.188;2022-12-18T04:02:44;-5.80;80.70
75451;DHT22;64029;48.244;9.188;2022-12-18T04:05:12;-5.80;80.60
75451;DHT22;64029;48.244;9.188;2022-12-18T04:07:40;-5.80;80.70
75451;DHT22;64029;48.244;9.188;2022-12-18T04:10:08;-5.80;80.80
75451;DHT22;64029;48.244;9.188;2022-12-18T04:12:37;-5.80;80.80
75451;DHT22;64029;48.244;9.188;2022-12-18T04:15:07;-5.80;80.80
75451;DHT22;64029;48.244;9.188;2022-12-18T04:17:34;-5.80;80.80
75451;DHT22;64029;48.244;9.188;2022-12-18T04:20:01;-5.80;80.80
75451;DHT22;64029;48.244;9.188;2022-12-18T04:22:28;-5.80;80.80
75451;DHT22;64029;48.244;9.188;2022-12-18T04:24:55;-5.80;80.90
75451;DHT22;64029;48.244;9.188;2022-12-18T04:27:21;-5.80;81.00
75451;DHT22;64029;48.244;9.188;2022-12-18T04:29:48;-5.70;81.10
75451;DHT22;64029;48.244;9.188;2022-12-18T04:32:16;-5.70;81.10
75451;DHT22;64029;48.244;9.188;2022-12-18T04:34:43;-5.70;81.10
75451;DHT22;64029;48.244;9.188;2022-12-18T04:37:10;-5.70;81.00
75451;DHT22;64029;48.244;9.188;2022-12-18T04:39:37;-5.70;81.10
75451;DHT22;64029;48.244;9.188;2022-12-18T04:42:04;-5.70;81.10
75451;DHT22;64029;48.244;9.188;2022-12-18T04:44:31;-5.70;81.10
75451;DHT22;64029;48.244;9.188;2022-12-18T04:46:58;-5.70;81.20
75451;DHT22;64029;48.244;9.188;2022-12-18T04:49:26;-5.70;81.10
75451;DHT22;64029;48.244;9.188;2022-12-18T04:51:53;-5.70;81.00
75451;DHT22;64029;48.244;9.188;2022-12-18T04:54:20;-5.60;81.30
75451;DHT22;64029;48.244;9.188;2022-12-18T04:56:47;-5.60;81.20
75451;DHT22;64029;48.244;9.188;2022-12-18T04:59:13;-5.60;81.20
75451;DHT22;64029;48.244;9.188;2022-12-18T05:01:40;-5.60;81.20
75451;DHT22;64029;48.244;9.188;2022-12-18T05:04:07;-5.60;81.20
75451;DHT22;64029;48.244;9.188;2022-12-18T05:06:35;-5.60;81.20
75451;DHT22;64029;48.244;9.188;2022-12-18T05:09:02;-5.60;81.40
75451;DHT22;64029;48.244;9.188;2022-12-18T05:11:29;-5.60;81.30
75451;DHT22;64029;48.244;9.188;2022-12-18T05:13:56;-5.60;81.20
75451;DHT22;64029;48.244;9.188;2022-12-18T05:16:23;-5.60;81.40
75451;DHT22;64029;48.244;9.188;2022-12-18T05:18:50;-5.60;81.30
75451;DHT22;64029;48.244;9.188;2022-12-18T05:21:17;-5.60;81.30
75451;DHT22;64029;48.244;9.188;2022-12-18T05:23:45;-5.60;81.40
75451;DHT22;64029;48.244;9.188;2022-12-18T05:26:15;-5.50;81.40
75451;DHT22;64029;48.244;9.188;2022-12-18T05:28:43;-5.50;81.40
75451;DHT22;64029;48.244;9.188;2022-12-18T05:31:10;-5.50;81.40
75451;DHT22;64029;48.244;9.188;2022-12-18T05:33:37;-5.50;81.50
75451;DHT22;64029;48.244;9.188;2022-12-18T05:36:06;-5.50;81.50
75451;DHT22;64029;48.244;9.188;2022-12-18T05:38:35;-5.50;81.50
75451;DHT22;64029;48.244;9.188;2022-12-18T05:41:03;-5.50;81.50
75451;DHT22;64029;48.244;9.188;2022-12-18T05:43:33;-5.50;81.50
75451;DHT22;64029;48.244;9.188;2022-12-18T05:46:04;-5.50;81.40
75451;DHT22;64029;48.244;9.188;2022-12-18T05:48:31;-5.50;81.60
75451;DHT22;64029;48.244;9.188;2022-12-18T05:51:03;-5.50;81.60
75451;DHT22;64029;48.244;9.188;2022-12-18T05:53:30;-5.50;81.60
75451;DHT22;64029;48.244;9.188;2022-12-18T05:56:00;-5.50;81.80
75451;DHT22;64029;48.244;9.188;2022-12-18T05:58:28;-5.50;82.40
75451;DHT22;64029;48.244;9.188;2022-12-18T06:00:55;-5.50;81.50
75451;DHT22;64029;48.244;9.188;2022-12-18T06:03:22;-5.50;81.60
75451;DHT22;64029;48.244;9.188;2022-12-18T06:05:49;-5.50;81.50
75451;DHT22;64029;48.244;9.188;2022-12-18T06:08:16;-5.50;81.50
75451;DHT22;64029;48.244;9.188;2022-12-18T06:10:50;-5.50;81.50
75451;DHT22;64029;48.244;9.188;2022-12-18T06:13:18;-5.50;81.60
75451;DHT22;64029;48.244;9.188;2022-12-18T06:15:46;-5.50;81.60
75451;DHT22;64029;48.244;9.188;2022-12-18T06:18:13;-5.50;81.50
75451;DHT22;64029;48.244;9.188;2022-12-18T06:20:40;-5.40;81.70
75451;DHT22;64029;48.244;9.188;2022-12-18T06:23:07;-5.40;81.70
75451;DHT22;64029;48.244;9.188;2022-12-18T06:25:37;-5.40;81.60
75451;DHT22;64029;48.244;9.188;2022-12-18T06:28:05;-5.50;81.50
75451;DHT22;64029;48.244;9.188;2022-12-18T06:30:32;-5.50;81.50
75451;DHT22;64029;48.244;9.188;2022-12-18T06:33:00;-5.50;81.40
75451;DHT22;64029;48.244;9.188;2022-12-18T06:35:27;-5.50;81.60
75451;DHT22;64029;48.244;9.188;2022-12-18T06:37:54;-5.50;81.40
75451;DHT22;64029;48.244;9.188;2022-12-18T06:40:21;-5.50;81.50
75451;DHT22;64029;48.244;9.188;2022-12-18T06:42:48;-5.50;81.40
75451;DHT22;64029;48.244;9.188;2022-12-18T06:45:14;-5.50;81.30
75451;DHT22;64029;48.244;9.188;2022-12-18T06:47:41;-5.50;81.30
75451;DHT22;64029;48.244;9.188;2022-12-18T06:50:10;-5.50;81.20
75451;DHT22;64029;48.244;9.188;2022-12-18T06:52:36;-5.50;81.30
75451;DHT22;64029;48.244;9.188;2022-12-18T06:55:05;-5.50;81.20
75451;DHT22;64029;48.244;9.188;2022-12-18T06:57:37;-5.50;81.20
75451;DHT22;64029;48.244;9.188;2022-12-18T07:00:06;-5.50;81.20
75451;DHT22;64029;48.244;9.188;2022-12-18T07:02:33;-5.50;81.20
75451;DHT22;64029;48.244;9.188;2022-12-18T07:05:00;-5.50;81.30
75451;DHT22;64029;48.244;9.188;2022-12-18T07:07:28;-5.50;81.30
75451;DHT22;64029;48.244;9.188;2022-12-18T07:09:55;-5.50;81.30
75451;DHT22;64029;48.244;9.188;2022-12-18T07:12:22;-5.50;81.20
75451;DHT22;64029;48.244;9.188;2022-12-18T07:14:49;-5.50;81.30
75451;DHT22;64029;48.244;9.188;2022-12-18T07:17:15;-5.50;81.20
75451;DHT22;64029;48.244;9.188;2022-12-18T07:19:42;-5.50;81.20
75451;DHT22;64029;48.244;9.188;2022-12-18T07:22:09;-5.50;81.30
75451;DHT22;64029;48.244;9.188;2022-12-18T07:24:37;-5.50;81.30
75451;DHT22;64029;48.244;9.188;2022-12-18T07:27:04;-5.50;81.20
75451;DHT22;64029;48.244;9.188;2022-12-18T07:29:31;-5.50;81.40
75451;DHT22;64029;48.244;9.188;2022-12-18T07:31:58;-5.50;81.30
75451;DHT22;64029;48.244;9.188;2022-12-18T07:34:25;-5.50;81.30
75451;DHT22;64029;48.244;9.188;2022-12-18T07:36:52;-5.50;81.30
75451;DHT22;64029;48.244;9.188;2022-12-18T07:39:18;-5.50;81.30
75451;DHT22;64029;48.244;9.188;2022-12-18T07:41:47;-5.50;81.40
75451;DHT22;64029;48.244;9.188;2022-12-18T07:44:33;-5.50;81.30
75451;DHT22;64029;48.244;9.188;2022-12-18T07:47:00;-5.50;81.30
75451;DHT22;64029;48.244;9.188;2022-12-18T07:49:28;-5.50;81.30
75451;DHT22;64029;48.244;9.188;2022-12-18T08:29:40;-5.40;81.40
75451;DHT22;64029;48.244;9.188;2022-12-18T08:32:06;-5.40;81.30
75451;DHT22;64029;48.244;9.188;2022-12-18T08:34:33;-5.40;81.30
75451;DHT22;64029;48.244;9.188;2022-12-18T08:37:01;-5.40;81.30
75451;DHT22;64029;48.244;9.188;2022-12-18T08:39:27;-5.30;81.80
75451;DHT22;64029;48.244;9.188;2022-12-18T08:41:54;-5.30;81.40
75451;DHT22;64029;48.244;9.188;2022-12-18T08:44:40;-5.30;81.40
75451;DHT22;64029;48.244;9.188;2022-12-18T08:47:07;-5.30;81.40
75451;DHT22;64029;48.244;9.188;2022-12-18T08:49:35;-5.30;81.40
75451;DHT22;64029;48.244;9.188;2022-12-18T08:52:03;-5.30;81.40
75451;DHT22;64029;48.244;9.188;2022-12-18T08:54:30;-5.30;81.40
75451;DHT22;64029;48.244;9.188;2022-12-18T08:56:57;-5.30;81.40
75451;DHT22;64029;48.244;9.188;2022-12-18T08:59:24;-5.30;81.40
75451;DHT22;64029;48.244;9.188;2022-12-18T09:01:59;-5.20;81.60
75451;DHT22;64029;48.244;9.188;2022-12-18T09:04:26;-5.20;81.60
75451;DHT22;64029;48.244;9.188;2022-12-18T09:06:53;-5.30;81.40
75451;DHT22;64029;48.244;9.188;2022-12-18T09:09:20;-5.20;81.50
75451;DHT22;64029;48.244;9.188;2022-12-18T09:11:48;-5.20;81.50
75451;DHT22;64029;48.244;9.188;2022-12-18T09:14:14;-5.20;81.50
75451;DHT22;64029;48.244;9.188;2022-12-18T09:16:41;-5.20;81.60
75451;DHT22;64029;48.244;9.188;2022-12-18T09:19:10;-5.20;81.50
75451;DHT22;64029;48.244;9.188;2022-12-18T09:21:38;-5.20;81.40
75451;DHT22;64029;48.244;9.188;2022-12-18T09:24:05;-5.10;81.40
75451;DHT22;64029;48.244;9.188;2022-12-18T09:26:32;-5.10;81.50
75451;DHT22;64029;48.244;9.188;2022-12-18T09:28:59;-5.10;81.50
75451;DHT22;64029;48.244;9.188;2022-12-18T09:31:26;-5.10;81.50
75451;DHT22;64029;48.244;9.188;2022-12-18T09:33:54;-5.10;81.50
75451;DHT22;64029;48.244;9.188;2022-12-18T09:36:23;-5.00;81.60
75451;DHT22;64029;48.244;9.188;2022-12-18T09:38:50;-5.00;81.60
75451;DHT22;64029;48.244;9.188;2022-12-18T09:44:13;-4.90;81.70
75451;DHT22;64029;48.244;9.188;2022-12-18T09:46:45;-4.90;81.70
75451;DHT22;64029;48.244;9.188;2022-12-18T09:49:14;-4.90;81.70
75451;DHT22;64029;48.244;9.188;2022-12-18T09:51:46;-4.80;81.80
75451;DHT22;64029;48.244;9.188;2022-12-18T09:54:16;-4.80;81.80
75451;DHT22;64029;48.244;9.188;2022-12-18T09:56:45;-4.80;81.70
75451;DHT22;64029;48.244;9.188;2022-12-18T09:59:19;-4.80;81.70
75451;DHT22;64029;48.244;9.188;2022-12-18T10:01:47;-4.70;81.80
75451;DHT22;64029;48.244;9.188;2022-12-18T10:04:14;-4.70;81.70
75451;DHT22;64029;48.244;9.188;2022-12-18T10:06:49;-4.70;81.70
75451;DHT22;64029;48.244;9.188;2022-12-18T10:09:27;-4.70;81.70
75451;DHT22;64029;48.244;9.188;2022-12-18T10:12:01;-4.60;81.80
75451;DHT22;64029;48.244;9.188;2022-12-18T10:14:35;-4.60;81.80
75451;DHT22;64029;48.244;9.188;2022-12-18T10:17:11;-4.60;81.70
75451;DHT22;64029;48.244;9.188;2022-12-18T10:19:43;-4.60;81.70
75451;DHT22;64029;48.244;9.188;2022-12-18T10:22:25;-4.60;81.70
75451;DHT22;64029;48.244;9.188;2022-12-18T10:24:59;-4.50;81.70
75451;DHT22;64029;48.244;9.188;2022-12-18T10:27:32;-4.50;81.80
75451;DHT22;64029;48.244;9.188;2022-12-18T10:30:14;-4.50;81.80
75451;DHT22;64029;48.244;9.188;2022-12-18T10:32:46;-4.40;81.90
75451;DHT22;64029;48.244;9.188;2022-12-18T10:35:53;-4.40;81.80
75451;DHT22;64029;48.244;9.188;2022-12-18T11:02:56;-4.20;81.60
75451;DHT22;64029;48.244;9.188;2022-12-18T11:05:26;-4.20;81.60
75451;DHT22;64029;48.244;9.188;2022-12-18T11:07:54;-4.20;81.60
75451;DHT22;64029;48.244;9.188;2022-12-18T11:10:23;-4.10;81.70
75451;DHT22;64029;48.244;9.188;2022-12-18T11:12:52;-4.10;81.40
75451;DHT22;64029;48.244;9.188;2022-12-18T11:15:21;-4.10;81.40
75451;DHT22;64029;48.244;9.188;2022-12-18T11:17:50;-4.10;81.40
75451;DHT22;64029;48.244;9.188;2022-12-18T11:20:30;-4.10;81.30
75451;DHT22;64029;48.244;9.188;2022-12-18T11:22:59;-4.00;81.50
75451;DHT22;64029;48.244;9.188;2022-12-18T11:25:27;-4.00;81.40
75451;DHT22;64029;48.244;9.188;2022-12-18T11:27:56;-4.00;81.40
75451;DHT22;64029;48.244;9.188;2022-12-18T11:30:25;-3.90;81.50
75451;DHT22;64029;48.244;9.188;2022-12-18T11:32:55;-3.90;81.50
75451;DHT22;64029;48.244;9.188;2022-12-18T11:35:34;-3.90;81.50
75451;DHT22;64029;48.244;9.188;2022-12-18T11:38:06;-3.90;81.40
75451;DHT22;64029;48.244;9.188;2022-12-18T11:40:38;-3.80;81.60
75451;DHT22;64029;48.244;9.188;2022-12-18T11:43:10;-3.80;81.50
75451;DHT22;64029;48.244;9.188;2022-12-18T11:45:43;-3.70;81.60
75451;DHT22;64029;48.244;9.188;2022-12-18T11:48:17;-3.70;81.50
75451;DHT22;64029;48.244;9.188;2022-12-18T11:50:48;-3.70;81.60
75451;DHT22;64029;48.244;9.188;2022-12-18T11:53:17;-3.70;81.40
75451;DHT22;64029;48.244;9.188;2022-12-18T11:55:52;-3.60;81.60
75451;DHT22;64029;48.244;9.188;2022-12-18T11:58:32;-3.60;81.50
75451;DHT22;64029;48.244;9.188;2022-12-18T12:01:10;-3.60;81.40
75451;DHT22;64029;48.244;9.188;2022-12-18T12:06:39;-3.60;81.40
75451;DHT22;64029;48.244;9.188;2022-12-18T12:09:17;-3.60;81.30
75451;DHT22;64029;48.244;9.188;2022-12-18T12:11:54;-3.60;81.30
75451;DHT22;64029;48.244;9.188;2022-12-18T12:14:32;-3.60;81.30
75451;DHT22;64029;48.244;9.188;2022-12-18T12:17:04;-3.50;81.40
75451;DHT22;64029;48.244;9.188;2022-12-18T12:19:43;-3.50;81.20
75451;DHT22;64029;48.244;9.188;2022-12-18T12:22:21;-3.50;81.20
75451;DHT22;64029;48.244;9.188;2022-12-18T12:25:05;-3.50;81.50
75451;DHT22;64029;48.244;9.188;2022-12-18T12:27:43;-3.50;81.30
75451;DHT22;64029;48.244;9.188;2022-12-18T12:30:18;-3.50;81.30
75451;DHT22;64029;48.244;9.188;2022-12-18T12:32:57;-3.40;81.40
75451;DHT22;64029;48.244;9.188;2022-12-18T12:35:35;-3.50;81.20
75451;DHT22;64029;48.244;9.188;2022-12-18T12:38:11;-3.40;81.30
75451;DHT22;64029;48.244;9.188;2022-12-18T12:40:43;-3.40;81.40
75451;DHT22;64029;48.244;9.188;2022-12-18T12:43:22;-3.40;81.40
75451;DHT22;64029;48.244;9.188;2022-12-18T12:45:53;-3.40;81.20
75451;DHT22;64029;48.244;9.188;2022-12-18T12:48:40;-3.40;81.30
75451;DHT22;64029;48.244;9.188;2022-12-18T12:51:12;-3.40;81.30
75451;DHT22;64029;48.244;9.188;2022-12-18T12:53:42;-3.30;81.40
75451;DHT22;64029;48.244;9.188;2022-12-18T12:56:11;-3.40;81.30
75451;DHT22;64029;48.244;9.188;2022-12-18T12:58:45;-3.40;81.20
75451;DHT22;64029;48.244;9.188;2022-12-18T13:01:20;-3.30;81.30
75451;DHT22;64029;48.244;9.188;2022-12-18T13:03:56;-3.40;81.10
75451;DHT22;64029;48.244;9.188;2022-12-18T13:06:40;-3.30;81.30
75451;DHT22;64029;48.244;9.188;2022-12-18T13:09:10;-3.30;81.30
75451;DHT22;64029;48.244;9.188;2022-12-18T13:11:39;-3.30;81.30
75451;DHT22;64029;48.244;9.188;2022-12-18T13:14:28;-3.30;81.20
75451;DHT22;64029;48.244;9.188;2022-12-18T13:17:22;-3.30;81.30
75451;DHT22;64029;48.244;9.188;2022-12-18T13:20:04;-3.30;81.20
75451;DHT22;64029;48.244;9.188;2022-12-18T13:22:35;-3.20;81.30
75451;DHT22;64029;48.244;9.188;2022-12-18T13:25:31;-3.30;81.10
75451;DHT22;64029;48.244;9.188;2022-12-18T13:28:10;-3.20;81.30
75451;DHT22;64029;48.244;9.188;2022-12-18T13:30:48;-3.20;81.30
75451;DHT22;64029;48.244;9.188;2022-12-18T13:33:38;-3.20;81.30
75451;DHT22;64029;48.244;9.188;2022-12-18T13:36:13;-3.20;81.30
75451;DHT22;64029;48.244;9.188;2022-12-18T13:38:41;-3.20;81.30
75451;DHT22;64029;48.244;9.188;2022-12-18T13:41:25;-3.20;81.30
75451;DHT22;64029;48.244;9.188;2022-12-18T13:43:54;-3.10;81.30
75451;DHT22;64029;48.244;9.188;2022-12-18T13:46:27;-3.10;81.30
75451;DHT22;64029;48.244;9.188;2022-12-18T13:48:57;-3.20;81.30
75451;DHT22;64029;48.244;9.188;2022-12-18T13:51:26;-3.10;81.30
75451;DHT22;64029;48.244;9.188;2022-12-18T13:53:55;-3.10;81.40
75451;DHT22;64029;48.244;9.188;2022-12-18T13:56:27;-3.10;81.40
75451;DHT22;64029;48.244;9.188;2022-12-18T13:59:08;-3.10;81.40
75451;DHT22;64029;48.244;9.188;2022-12-18T14:01:36;-3.10;81.40
75451;DHT22;64029;48.244;9.188;2022-12-18T14:04:10;-3.10;81.40
75451;DHT22;64029;48.244;9.188;2022-12-18T14:06:37;-3.10;81.40
75451;DHT22;64029;48.244;9.188;2022-12-18T14:09:05;-3.10;81.40
75451;DHT22;64029;48.244;9.188;2022-12-18T14:11:33;-3.10;81.40
75451;DHT22;64029;48.244;9.188;2022-12-18T14:14:01;-3.10;81.40
75451;DHT22;64029;48.244;9.188;2022-12-18T14:16:28;-3.10;81.40
75451;DHT22;64029;48.244;9.188;2022-12-18T14:18:57;-3.10;81.40
75451;DHT22;64029;48.244;9.188;2022-12-18T14:21:26;-3.10;81.40
75451;DHT22;64029;48.244;9.188;2022-12-18T14:24:05;-3.10;81.40
75451;DHT22;64029;48.244;9.188;2022-12-18T14:26:34;-3.10;81.40
75451;DHT22;64029;48.244;9.188;2022-12-18T14:29:21;-3.10;81.50
75451;DHT22;64029;48.244;9.188;2022-12-18T14:32:04;-3.10;81.40
75451;DHT22;64029;48.244;9.188;2022-12-18T14:34:31;-3.10;81.40
75451;DHT22;64029;48.244;9.188;2022-12-18T14:36:57;-3.10;81.40
75451;DHT22;64029;48.244;9.188;2022-12-18T14:39:24;-3.20;81.30
75451;DHT22;64029;48.244;9.188;2022-12-18T14:41:52;-3.10;81.50
75451;DHT22;64029;48.244;9.188;2022-12-18T14:44:19;-3.10;81.40
75451;DHT22;64029;48.244;9.188;2022-12-18T14:46:48;-3.10;81.40
75451;DHT22;64029;48.244;9.188;2022-12-18T14:49:23;-3.10;81.40
75451;DHT22;64029;48.244;9.188;2022-12-18T14:51:52;-3.20;81.30
75451;DHT22;64029;48.244;9.188;2022-12-18T14:54:21;-3.20;81.30
75451;DHT22;64029;48.244;9.188;2022-12-18T14:56:49;-3.20;81.30
75451;DHT22;64029;48.244;9.188;2022-12-18T14:59:21;-3.20;81.40
75451;DHT22;64029;48.244;9.188;2022-12-18T15:01:57;-3.20;82.10
75451;DHT22;64029;48.244;9.188;2022-12-18T15:04:28;-3.20;81.40
75451;DHT22;64029;48.244;9.188;2022-12-18T15:07:09;-3.20;81.40
75451;DHT22;64029;48.244;9.188;2022-12-18T15:09:38;-3.30;81.30
75451;DHT22;64029;48.244;9.188;2022-12-18T15:12:22;-3.30;81.30
75451;DHT22;64029;48.244;9.188;2022-12-18T15:14:52;-3.30;81.40
75451;DHT22;64029;48.244;9.188;2022-12-18T15:17:21;-3.30;81.40
75451;DHT22;64029;48.244;9.188;2022-12-18T15:19:49;-3.30;81.40
75451;DHT22;64029;48.244;9.188;2022-12-18T15:22:23;-3.30;81.40
75451;DHT22;64029;48.244;9.188;2022-12-18T15:24:52;-3.30;81.40
75451;DHT22;64029;48.244;9.188;2022-12-18T15:27:25;-3.30;81.40
75451;DHT22;64029;48.244;9.188;2022-12-18T15:30:21;-3.30;81.40
75451;DHT22;64029;48.244;9.188;2022-12-18T15:32:49;-3.30;82.20
75451;DHT22;64029;48.244;9.188;2022-12-18T15:35:19;-3.30;81.40
75451;DHT22;64029;48.244;9.188;2022-12-18T15:37:46;-3.40;81.30
75451;DHT22;64029;48.244;9.188;2022-12-18T15:40:14;-3.40;81.30
75451;DHT22;64029;48.244;9.188;2022-12-18T15:42:42;-3.40;81.30
75451;DHT22;64029;48.244;9.188;2022-12-18T15:45:28;-3.40;81.40
75451;DHT22;64029;48.244;9.188;2022-12-18T15:47:55;-3.50;81.40
75451;DHT22;64029;48.244;9.188;2022-12-18T15:50:23;-3.50;81.30
75451;DHT22;64029;48.244;9.188;2022-12-18T15:52:52;-3.50;81.30
75451;DHT22;64029;48.244;9.188;2022-12-18T15:55:21;-3.50;81.30
75451;DHT22;64029;48.244;9.188;2022-12-18T15:58:07;-3.50;81.30
75451;DHT22;64029;48.244;9.188;2022-12-18T16:00:38;-3.50;81.20
75451;DHT22;64029;48.244;9.188;2022-12-18T16:03:05;-3.60;81.20
75451;DHT22;64029;48.244;9.188;2022-12-18T16:05:32;-3.60;81.20
75451;DHT22;64029;48.244;9.188;2022-12-18T16:07:59;-3.60;81.30
75451;DHT22;64029;48.244;9.188;2022-12-18T16:10:26;-3.60;82.00
75451;DHT22;64029;48.244;9.188;2022-12-18T16:12:53;-3.60;81.40
75451;DHT22;64029;48.244;9.188;2022-12-18T16:15:20;-3.60;81.40
75451;DHT22;64029;48.244;9.188;2022-12-18T16:17:48;-3.70;81.20
75451;DHT22;64029;48.244;9.188;2022-12-18T16:20:16;-3.70;81.20
75451;DHT22;64029;48.244;9.188;2022-12-18T16:22:45;-3.70;81.20
75451;DHT22;64029;48.244;9.188;2022-12-18T16:25:17;-3.70;81.20
75451;DHT22;64029;48.244;9.188;2022-12-18T16:27:44;-3.70;81.10
75451;DHT22;64029;48.244;9.188;2022-12-18T16:30:13;-3.70;81.20
75451;DHT22;64029;48.244;9.188;2022-12-18T16:32:41;-3.70;81.10
75451;DHT22;64029;48.244;9.188;2022-12-18T16:35:11;-3.80;81.00
75451;DHT22;64029;48.244;9.188;2022-12-18T16:37:38;-3.80;81.00
75451;DHT22;64029;48.244;9.188;2022-12-18T16:40:07;-3.80;81.00
75451;DHT22;64029;48.244;9.188;2022-12-18T16:42:35;-3.80;81.00
75451;DHT22;64029;48.244;9.188;2022-12-18T16:45:03;-3.80;81.00
75451;DHT22;64029;48.244;9.188;2022-12-18T16:47:30;-3.80;81.00
75451;DHT22;64029;48.244;9.188;2022-12-18T16:49:57;-3.80;81.00
75451;DHT22;64029;48.244;9.188;2022-12-18T16:52:26;-3.80;81.00
75451;DHT22;64029;48.244;9.188;2022-12-18T16:54:53;-3.80;81.00
75451;DHT22;64029;48.244;9.188;2022-12-18T16:57:20;-3.80;81.00
75451;DHT22;64029;48.244;9.188;2022-12-18T16:59:47;-3.80;81.00
75451;DHT22;64029;48.244;9.188;2022-12-18T17:02:16;-3.80;81.00
75451;DHT22;64029;48.244;9.188;2022-12-18T17:04:44;-3.80;81.00
75451;DHT22;64029;48.244;9.188;2022-12-18T17:07:12;-3.80;81.00
75451;DHT22;64029;48.244;9.188;2022-12-18T17:09:40;-3.80;81.00
75451;DHT22;64029;48.244;9.188;2022-12-18T17:12:08;-3.80;81.00
75451;DHT22;64029;48.244;9.188;2022-12-18T17:14:35;-3.90;80.90
75451;DHT22;64029;48.244;9.188;2022-12-18T17:17:02;-3.90;80.90
75451;DHT22;64029;48.244;9.188;2022-12-18T17:19:29;-3.80;81.10
75451;DHT22;64029;48.244;9.188;2022-12-18T17:21:56;-3.90;80.90
75451;DHT22;64029;48.244;9.188;2022-12-18T17:24:23;-3.90;81.00
75451;DHT22;64029;48.244;9.188;2022-12-18T17:26:51;-3.90;80.90
75451;DHT22;64029;48.244;9.188;2022-12-18T17:29:19;-3.90;80.90
75451;DHT22;64029;48.244;9.188;2022-12-18T17:31:46;-3.90;81.00
75451;DHT22;64029;48.244;9.188;2022-12-18T17:34:14;-3.90;81.00
75451;DHT22;64029;48.244;9.188;2022-12-18T17:36:41;-3.90;80.90
75451;DHT22;64029;48.244;9.188;2022-12-18T17:39:16;-3.90;80.90
75451;DHT22;64029;48.244;9.188;2022-12-18T17:41:44;-3.90;81.00